Time;durP1;ratioP1;P1;durP2;ratioP2;P2;SDS_P1;SDS_P2;PMS_P1;PMS_P2;Temp;Humidity;BMP_temperature;BMP_pressure;BME280_temperature;BME280_humidity;BME280_pressure;Samples;Min_cycle;Max_cycle;Signal;HPM_P1;HPM_P2
2023/07/05 00:00:30;;;;;;;10.95;5.15;;;;;;;;;;5073569;28;20826;-84
2023/07/05 00:02:57;;;;;;;13.27;5.57;;;;;;;;;;5060158;28;20918;-84
2023/07/05 00:05:23;;;;;;;9.52;5.90;;;;;;;;;;5071453;28;20497;-83
2023/07/05 00:07:49;;;;;;;9.27;5.68;;;;;;;;;;5088929;28;20917;-83
2023/07/05 00:10:15;;;;;;;11.60;5.68;;;;;;;;;;5090796;28;20406;-83
2023/07/05 00:12:41;;;;;;;12.38;5.50;;;;;;;;;;5089252;28;20422;-82
2023/07/05 00:15:08;;;;;;;11.07;5.38;;;15.10;99.90;;;;;;5055347;28;21058;-82
2023/07/05 00:17:34;;;;;;;11.45;6.05;;;14.90;99.90;;;;;;5073528;28;20937;-82
2023/07/05 00:20:01;;;;;;;9.88;5.72;;;;;;;;;;5071181;28;20497;-82
2023/07/05 00:22:27;;;;;;;12.02;5.43;;;;;;;;;;5073614;28;20404;-82
2023/07/05 00:24:54;;;;;;;10.15;5.90;;;;;;;;;;5088863;28;20456;-82
2023/07/05 00:27:23;;;;;;;11.13;6.03;;;15.00;99.90;;;;;;5090093;28;20430;-82
2023/07/05 00:29:50;;;;;;;12.43;6.32;;;;;;;;;;5056741;28;20743;-82
2023/07/05 00:32:16;;;;;;;11.75;6.43;;;;;;;;;;5089279;28;20453;-82
2023/07/05 00:34:43;;;;;;;11.98;6.53;;;;;;;;;;5090698;28;20398;-82
2023/07/05 00:37:09;;;;;;;13.25;6.35;;;;;;;;;;5071166;28;20458;-82
2023/07/05 00:39:35;;;;;;;12.17;6.83;;;;;;;;;;5090086;28;20405;-82
2023/07/05 00:42:01;;;;;;;11.80;6.60;;;;;;;;;;5053008;28;20426;-82
2023/07/05 00:44:27;;;;;;;11.80;6.65;;;;;;;;;;5053677;28;20399;-82
2023/07/05 00:46:59;;;;;;;15.18;6.78;;;14.50;99.90;;;;;;5082943;28;20414;-83
2023/07/05 00:49:27;;;;;;;14.20;7.18;;;;;;;;;;5088970;28;20437;-83
2023/07/05 00:51:58;;;;;;;12.75;7.03;;;14.40;99.90;;;;;;5086616;28;20425;-83
2023/07/05 00:54:30;;;;;;;14.87;7.60;;;14.50;99.90;;;;;;5078729;28;20798;-84
2023/07/05 00:57:24;;;;;;;13.18;7.93;;;14.60;99.90;;;;;;5074745;28;20398;-84
2023/07/05 00:59:55;;;;;;;15.80;8.10;;;;;;;;;;5088797;28;20495;-84
2023/07/05 01:02:21;;;;;;;13.95;7.28;;;;;;;;;;5088676;28;20422;-84
2023/07/05 01:04:47;;;;;;;13.57;7.22;;;;;;;;;;5075379;28;20878;-84
2023/07/05 01:07:13;;;;;;;18.73;7.90;;;;;;;;;;5096502;28;20402;-84
2023/07/05 01:09:39;;;;;;;13.88;6.85;;;;;;;;;;5091065;28;20827;-83
2023/07/05 01:12:11;;;;;;;14.30;7.50;;;;;;;;;;5061332;28;20421;-83
2023/07/05 01:14:51;;;;;;;13.38;7.00;;;14.40;99.90;;;;;;5077213;28;20774;-83
2023/07/05 01:17:35;;;;;;;15.38;7.72;;;;;;;;;;5094376;28;20816;-83
2023/07/05 01:20:01;;;;;;;12.63;7.60;;;;;;;;;;5081753;28;20860;-83
2023/07/05 01:22:36;;;;;;;14.32;7.95;;;;;;;;;;5093226;28;20474;-83
2023/07/05 01:25:15;;;;;;;19.58;8.18;;;;;;;;;;5076809;28;20905;-82
2023/07/05 01:27:44;;;;;;;17.67;8.13;;;;;;;;;;5092772;28;20422;-82
2023/07/05 01:30:45;;;;;;;17.25;9.20;;;14.30;99.90;;;;;;5074207;28;20422;-81
2023/07/05 01:33:21;;;;;;;15.98;8.93;;;14.00;99.90;;;;;;5093434;28;20414;-81
2023/07/05 01:35:50;;;;;;;24.47;10.07;;;;;;;;;;5074697;28;20485;-80
2023/07/05 01:38:16;;;;;;;19.92;10.13;;;;;;;;;;5090703;28;20414;-81
2023/07/05 01:40:45;;;;;;;23.13;10.75;;;;;;;;;;5076628;28;20917;-79
2023/07/05 01:43:15;;;;;;;18.17;10.40;;;14.30;99.90;;;;;;5092540;28;20402;-80
2023/07/05 01:45:56;;;;;;;21.67;11.00;;;;;;;;;;5070925;28;21016;-79
2023/07/05 01:48:27;;;;;;;17.70;11.07;;;14.00;99.90;;;;;;5091348;28;20425;-79
2023/07/05 01:51:04;;;;;;;21.73;10.73;;;13.80;99.90;;;;;;5090903;28;20428;-79
2023/07/05 01:53:34;;;;;;;22.08;10.38;;;;;;;;;;5091168;28;20960;-79
2023/07/05 01:56:06;;;;;;;19.70;11.10;;;;;;;;;;5092039;28;20925;-78
2023/07/05 01:58:36;;;;;;;17.65;10.80;;;;;;;;;;5088551;28;20736;-79
2023/07/05 02:01:03;;;;;;;20.90;11.60;;;;;;;;;;5082343;28;20427;-78
2023/07/05 02:03:30;;;;;;;17.58;11.27;;;;;;;;;;5082723;28;20419;-79
2023/07/05 02:05:56;;;;;;;19.30;11.43;;;;;;;;;;5073597;28;20419;-79
2023/07/05 02:08:25;;;;;;;20.88;11.25;;;;;;;;;;5090130;28;20790;-80
2023/07/05 02:10:51;;;;;;;20.47;11.87;;;;;;;;;;5075424;28;20495;-79
2023/07/05 02:13:18;;;;;;;16.60;11.45;;;;;;;;;;5071835;28;20419;-79
2023/07/05 02:15:46;;;;;;;18.17;12.23;;;;;;;;;;5092297;28;20397;-79
2023/07/05 02:18:12;;;;;;;20.73;12.18;;;;;;;;;;5071373;28;20420;-81
2023/07/05 02:20:38;;;;;;;19.38;11.98;;;;;;;;;;5078253;28;20421;-80
2023/07/05 02:23:04;;;;;;;17.35;11.82;;;;;;;;;;5073746;28;20455;-80
2023/07/05 02:25:31;;;;;;;20.00;12.32;;;;;;;;;;5092603;28;20904;-79
2023/07/05 02:27:57;;;;;;;20.73;11.57;;;;;;;;;;5075213;28;20430;-79
2023/07/05 02:30:24;;;;;;;20.15;12.52;;;14.10;99.90;;;;;;5070289;28;20906;-78
2023/07/05 02:32:50;;;;;;;20.30;12.27;;;;;;;;;;5073203;28;20919;-78
2023/07/05 02:35:16;;;;;;;19.13;12.80;;;;;;;;;;5088386;28;20497;-78
2023/07/05 02:37:42;;;;;;;24.08;14.13;;;;;;;;;;5072357;28;20829;-78
2023/07/05 02:40:08;;;;;;;22.63;13.18;;;;;;;;;;5083483;28;20418;-77
2023/07/05 02:42:34;;;;;;;24.57;13.77;;;;;;;;;;5092034;28;20436;-77
2023/07/05 02:45:00;;;;;;;24.73;15.50;;;;;;;;;;5092272;28;20749;-77
2023/07/05 02:47:26;;;;;;;24.70;14.13;;;;;;;;;;5090471;28;20861;-77
2023/07/05 02:49:52;;;;;;;23.88;15.63;;;;;;;;;;5073210;28;20467;-78
2023/07/05 02:52:19;;;;;;;26.13;15.52;;;;;;;;;;5072782;28;20418;-76
2023/07/05 02:54:45;;;;;;;25.87;16.00;;;;;;;;;;5091311;28;20409;-77
2023/07/05 02:57:11;;;;;;;25.05;15.68;;;;;;;;;;5075135;28;20434;-77
2023/07/05 02:59:37;;;;;;;31.05;16.33;;;;;;;;;;5090460;28;20422;-77
2023/07/05 03:02:03;;;;;;;24.17;15.95;;;;;;;;;;5075607;28;20459;-76
2023/07/05 03:04:29;;;;;;;28.87;16.23;;;;;;;;;;5092260;28;20410;-77
2023/07/05 03:06:55;;;;;;;26.67;16.98;;;;;;;;;;5091859;28;20417;-76
2023/07/05 03:09:21;;;;;;;26.65;16.63;;;;;;;;;;5090052;28;20426;-76
2023/07/05 03:11:47;;;;;;;24.00;16.20;;;;;;;;;;5091598;28;20430;-76
2023/07/05 03:14:13;;;;;;;22.23;15.33;;;;;;;;;;5091870;28;20422;-77
2023/07/05 03:16:40;;;;;;;24.05;16.13;;;;;;;;;;5091580;28;20422;-77
2023/07/05 03:19:06;;;;;;;23.83;15.65;;;;;;;;;;5075267;28;20406;-78
2023/07/05 03:21:32;;;;;;;23.17;15.95;;;;;;;;;;5071508;28;20419;-78
2023/07/05 03:23:58;;;;;;;31.30;16.52;;;;;;;;;;5086534;28;20405;-78
2023/07/05 03:26:24;;;;;;;28.27;17.00;;;;;;;;;;5073641;28;21037;-77
2023/07/05 03:28:50;;;;;;;29.45;17.95;;;;;;;;;;5090237;28;20429;-76
2023/07/05 03:31:17;;;;;;;25.20;17.52;;;14.30;99.90;;;;;;5085487;28;20490;-76
2023/07/05 03:33:43;;;;;;;26.83;18.23;;;;;;;;;;5086843;28;20479;-76
2023/07/05 03:36:17;;;;;;;25.00;18.10;;;;;;;;;;5091703;28;20398;-80
2023/07/05 03:38:43;;;;;;;23.77;17.58;;;;;;;;;;5091253;28;20402;-80
2023/07/05 03:41:14;;;;;;;23.13;17.23;;;;;;;;;;5066452;28;20811;-81
2023/07/05 03:43:41;;;;;;;25.80;16.63;;;;;;;;;;5067278;28;20730;-80
2023/07/05 03:46:09;;;;;;;22.40;16.77;;;;;;;;;;5073584;28;20948;-80
2023/07/05 03:48:38;;;;;;;27.55;17.70;;;14.30;99.90;;;;;;5074006;28;20422;-80
2023/07/05 03:51:04;;;;;;;24.45;17.63;;;;;;;;;;5070289;28;20421;-80
2023/07/05 03:53:30;;;;;;;24.67;16.75;;;;;;;;;;5069907;28;20419;-80
2023/07/05 03:56:01;;;;;;;24.40;16.42;;;14.70;99.90;;;;;;5070829;28;20400;-80
2023/07/05 03:58:27;;;;;;;19.97;15.43;;;;;;;;;;5071756;28;20418;-80
2023/07/05 04:00:53;;;;;;;22.33;16.08;;;;;;;;;;5070992;28;20425;-80
2023/07/05 04:03:19;;;;;;;21.92;15.50;;;;;;;;;;5057795;28;20441;-80
2023/07/05 04:05:46;;;;;;;20.83;15.05;;;;;;;;;;5073958;28;20433;-80
2023/07/05 04:08:12;;;;;;;21.73;14.52;;;;;;;;;;5091283;28;20394;-79
2023/07/05 04:10:38;;;;;;;19.52;15.15;;;;;;;;;;5057519;28;20958;-79
2023/07/05 04:13:04;;;;;;;19.63;15.23;;;;;;;;;;5057827;28;20799;-79
2023/07/05 04:15:30;;;;;;;19.73;14.50;;;;;;;;;;5091942;28;20401;-80
2023/07/05 04:17:56;;;;;;;17.70;13.27;;;;;;;;;;5091611;28;20482;-79
2023/07/05 04:20:22;;;;;;;17.58;13.23;;;;;;;;;;5074274;28;20509;-79
2023/07/05 04:22:48;;;;;;;16.55;13.07;;;;;;;;;;5070190;28;20518;-79
2023/07/05 04:25:14;;;;;;;16.90;12.97;;;;;;;;;;5073935;28;20758;-79
2023/07/05 04:27:40;;;;;;;16.58;11.85;;;;;;;;;;5074069;28;20414;-78
2023/07/05 04:30:07;;;;;;;19.45;12.63;;;;;;;;;;5056882;28;20409;-77
2023/07/05 04:32:33;;;;;;;15.17;11.13;;;;;;;;;;5083089;28;20664;-78
2023/07/05 04:34:59;;;;;;;15.15;10.48;;;;;;;;;;5086212;28;20500;-75
2023/07/05 04:37:25;;;;;;;14.80;10.13;;;;;;;;;;5087933;28;20421;-75
2023/07/05 04:39:51;;;;;;;11.55;8.40;;;;;;;;;;5074687;28;20394;-75
2023/07/05 04:42:17;;;;;;;15.23;8.70;;;;;;;;;;5093498;28;20471;-76
2023/07/05 04:44:43;;;;;;;12.27;7.60;;;;;;;;;;5076697;28;20398;-76
2023/07/05 04:47:09;;;;;;;10.43;6.70;;;;;;;;;;5057693;28;20418;-76
2023/07/05 04:49:35;;;;;;;9.55;6.18;;;;;;;;;;5084988;28;20445;-76
2023/07/05 04:52:01;;;;;;;9.07;5.80;;;;;;;;;;5090506;28;20550;-76
2023/07/05 04:54:27;;;;;;;9.43;5.93;;;;;;;;;;5075688;28;20456;-75
2023/07/05 04:56:53;;;;;;;10.52;6.20;;;;;;;;;;5092977;28;20397;-76
2023/07/05 04:59:19;;;;;;;11.27;6.47;;;;;;;;;;5076604;28;20824;-76
2023/07/05 05:01:46;;;;;;;9.75;5.75;;;;;;;;;;5086570;28;20913;-77
2023/07/05 05:04:12;;;;;;;7.53;4.30;;;;;;;;;;5091259;28;20410;-77
2023/07/05 05:06:38;;;;;;;7.17;4.00;;;;;;;;;;5076937;28;20476;-76
2023/07/05 05:09:04;;;;;;;8.10;4.00;;;;;;;;;;5072269;28;20548;-77
2023/07/05 05:11:30;;;;;;;9.30;3.92;;;;;;;;;;5073378;28;20473;-77
2023/07/05 05:13:57;;;;;;;6.65;4.15;;;14.50;99.90;;;;;;5056726;28;20429;-77
2023/07/05 05:16:23;;;;;;;7.43;4.60;;;;;;;;;;5070267;28;20485;-76
2023/07/05 05:18:49;;;;;;;8.57;4.60;;;;;;;;;;5074102;28;20417;-76
2023/07/05 05:21:15;;;;;;;7.25;4.80;;;;;;;;;;5091693;28;20427;-76
2023/07/05 05:23:41;;;;;;;9.90;4.95;;;;;;;;;;5087328;28;20826;-76
2023/07/05 05:26:07;;;;;;;9.25;5.25;;;;;;;;;;5086550;28;20429;-76
2023/07/05 05:28:33;;;;;;;7.38;4.78;;;;;;;;;;5074492;28;20422;-77
2023/07/05 05:31:05;;;;;;;8.67;5.13;;;;;;;;;;5090843;28;20820;-77
2023/07/05 05:33:31;;;;;;;7.03;4.95;;;;;;;;;;5089645;28;20430;-78
2023/07/05 05:35:57;;;;;;;7.75;5.00;;;;;;;;;;5093141;28;20398;-78
2023/07/05 05:38:23;;;;;;;7.38;5.50;;;;;;;;;;5074966;28;20422;-78
2023/07/05 05:40:51;;;;;;;7.50;5.25;;;;;;;;;;5090101;28;20418;-78
2023/07/05 05:43:18;;;;;;;8.40;5.30;;;14.20;99.90;;;;;;5088738;28;20413;-78
2023/07/05 05:45:44;;;;;;;9.27;4.95;;;;;;;;;;5076117;28;20421;-78
2023/07/05 05:48:10;;;;;;;8.75;5.25;;;;;;;;;;5059325;28;20406;-78
2023/07/05 05:50:37;;;;;;;9.95;4.93;;;;;;;;;;5074311;28;20428;-78
2023/07/05 05:53:03;;;;;;;7.22;5.30;;;;;;;;;;5092100;28;20422;-78
2023/07/05 05:55:29;;;;;;;7.70;4.88;;;;;;;;;;5072840;28;20417;-78
2023/07/05 05:57:55;;;;;;;6.97;4.70;;;;;;;;;;5074876;28;20416;-78
2023/07/05 06:00:22;;;;;;;7.03;4.70;;;;;;;;;;5072455;28;20887;-78
2023/07/05 06:02:48;;;;;;;8.73;4.55;;;;;;;;;;5104842;28;20477;-78
2023/07/05 06:05:15;;;;;;;7.28;4.60;;;;;;;;;;5082770;28;20504;-77
2023/07/05 06:07:41;;;;;;;6.43;4.32;;;;;;;;;;5088419;28;22130;-76
2023/07/05 06:10:07;;;;;;;8.30;4.20;;;;;;;;;;5081759;28;20425;-77
2023/07/05 06:12:35;;;;;;;8.18;4.30;;;;;;;;;;5089241;28;20429;-77
2023/07/05 06:15:02;;;;;;;6.80;4.28;;;;;;;;;;5090915;28;20418;-77
2023/07/05 06:17:28;;;;;;;6.85;4.13;;;;;;;;;;5082024;28;20760;-77
2023/07/05 06:19:54;;;;;;;7.22;4.15;;;;;;;;;;5067501;28;20815;-80
2023/07/05 06:22:20;;;;;;;7.15;3.95;;;;;;;;;;5088391;28;20418;-81
2023/07/05 06:24:46;;;;;;;8.63;4.00;;;;;;;;;;5078324;28;20419;-80
2023/07/05 06:27:12;;;;;;;10.00;3.97;;;;;;;;;;5087352;28;20426;-80
2023/07/05 06:29:39;;;;;;;7.95;4.35;;;;;;;;;;5081181;28;20506;-80
2023/07/05 06:32:05;;;;;;;5.47;3.80;;;;;;;;;;5080140;28;20503;-81
2023/07/05 06:34:31;;;;;;;7.72;4.07;;;;;;;;;;5071177;28;20425;-81
2023/07/05 06:36:57;;;;;;;5.85;3.85;;;;;;;;;;5090019;28;20414;-80
2023/07/05 06:39:23;;;;;;;8.07;3.37;;;;;;;;;;5060936;28;20516;-80
2023/07/05 06:41:49;;;;;;;6.82;3.20;;;;;;;;;;5073674;28;20516;-81
2023/07/05 06:44:15;;;;;;;5.68;3.42;;;;;;;;;;5073357;28;20421;-80
2023/07/05 06:46:41;;;;;;;6.70;3.45;;;;;;;;;;5052799;28;20572;-80
2023/07/05 06:49:07;;;;;;;5.28;2.90;;;;;;;;;;5072396;28;20939;-80
2023/07/05 06:51:33;;;;;;;7.90;3.20;;;;;;;;;;5091819;28;20424;-80
2023/07/05 06:53:59;;;;;;;6.53;3.25;;;;;;;;;;5087320;28;20428;-81
2023/07/05 06:56:25;;;;;;;8.95;3.55;;;;;;;;;;5074326;28;20476;-81
2023/07/05 06:58:51;;;;;;;6.38;3.40;;;;;;;;;;5089910;28;20398;-80
2023/07/05 07:01:17;;;;;;;7.47;3.20;;;;;;;;;;5090482;28;20441;-80
2023/07/05 07:04:12;;;;;;;6.55;3.78;;;;;;;;;;5136454;27;20388;-80
2023/07/05 07:06:38;;;;;;;5.88;3.58;;;;;;;;;;5123497;27;20415;-80
2023/07/05 07:09:05;;;;;;;7.28;3.38;;;;;;;;;;5144168;27;20441;-81
2023/07/05 07:11:31;;;;;;;6.60;3.22;;;;;;;;;;5138939;27;20475;-80
2023/07/05 07:13:57;;;;;;;5.60;3.33;;;;;;;;;;5137257;27;20489;-80
2023/07/05 07:16:23;;;;;;;6.65;3.28;;;;;;;;;;5101208;28;20432;-80
2023/07/05 07:18:50;;;;;;;6.88;3.22;;;15.00;99.90;;;;;;5125610;27;20419;-79
2023/07/05 07:21:17;;;;;;;5.78;2.53;;;;;;;;;;5129483;27;20422;-80
2023/07/05 07:23:46;;;;;;;4.10;2.13;;;15.30;99.90;;;;;;5125410;27;20415;-79
2023/07/05 07:26:19;;;;;;;3.67;2.00;;;15.10;99.90;;;;;;5108946;27;21150;-79
2023/07/05 07:28:49;;;;;;;4.90;2.30;;;14.90;99.90;;;;;;5096301;27;20537;-80
2023/07/05 07:31:20;;;;;;;4.70;2.25;;;14.80;99.90;;;;;;5095555;28;20413;-80
2023/07/05 07:33:47;;;;;;;3.55;2.30;;;;;;;;;;5107602;27;21089;-79
2023/07/05 07:36:15;;;;;;;6.15;2.72;;;14.60;99.90;;;;;;5106846;28;20419;-81
2023/07/05 07:38:42;;;;;;;5.07;2.65;;;14.30;99.90;;;;;;5128128;27;20422;-78
2023/07/05 07:41:15;;;;;;;15.45;3.35;;;13.70;99.90;;;;;;5109950;28;20419;-79
2023/07/05 07:43:41;;;;;;;8.80;2.17;;;;;;;;;;5103057;27;20472;-77
2023/07/05 07:46:13;;;;;;;6.32;1.98;;;12.10;99.90;;;;;;5122881;27;20972;-76
2023/07/05 07:48:40;;;;;;;3.85;1.80;;;11.70;99.90;;;;;;5105568;27;20550;-77
2023/07/05 07:51:06;;;;;;;5.40;2.08;;;;;;;;;;5123623;28;20424;-77
2023/07/05 07:53:32;;;;;;;4.75;1.80;;;;;;;;;;5128215;28;20415;-75
2023/07/05 07:55:58;;;;;;;3.90;1.35;;;;;;;;;;5122834;27;20498;-76
2023/07/05 07:58:25;;;;;;;4.50;1.55;;;;;;;;;;5136971;27;20909;-76
2023/07/05 08:00:51;;;;;;;4.82;1.40;;;;;;;;;;5135428;27;20914;-76
2023/07/05 08:03:17;;;;;;;4.15;1.50;;;;;;;;;;5147548;27;20510;-76
2023/07/05 08:05:44;;;;;;;5.87;1.70;;;;;;;;;;5123208;27;20425;-74
2023/07/05 08:08:10;;;;;;;2.95;1.40;;;;;;;;;;5116182;28;20420;-77
2023/07/05 08:14:25;;;;;;;3.72;1.40;;;;;;;;;;5122481;27;1966905;-76
2023/07/05 08:16:52;;;;;;;1.83;1.17;;;;;;;;;;5145148;27;20948;-77
2023/07/05 08:19:20;;;;;;;4.15;1.33;;;;;;;;;;5139309;27;20471;-78
2023/07/05 08:21:47;;;;;;;3.35;1.20;;;;;;;;;;5125805;27;21033;-78
2023/07/05 08:24:14;;;;;;;3.00;1.30;;;11.70;99.90;;;;;;5143736;27;20406;-78
2023/07/05 08:26:41;;;;;;;2.80;1.17;;;;;;;;;;5118548;27;20454;-75
2023/07/05 08:30:38;;;;;;;3.75;1.10;;;;;;;;;;5132223;27;20362;-76
2023/07/05 08:34:49;;;;;;;2.80;1.00;;;;;;;;;;5120987;27;1977237;-76
2023/07/05 08:37:15;;;;;;;3.35;1.30;;;;;;;;;;5131507;27;20809;-76
2023/07/05 08:40:40;;;;;;;2.97;1.13;;;12.00;99.90;;;;;;5081570;27;20388;-76
2023/07/05 08:43:12;;;;;;;5.10;1.30;;;;;;;;;;5086381;28;20427;-76
2023/07/05 08:54:43;;;;;;;6.90;1.85;;;;;;;;;;5106588;27;20389;-76
2023/07/05 08:57:19;;;;;;;7.63;2.10;;;;;;;;;;5065086;28;20419;-77
2023/07/05 08:59:49;;;;;;;6.00;1.80;;;;;;;;;;5101904;28;20463;-75
2023/07/05 09:03:11;;;;;;;11.57;2.40;;;12.50;99.90;;;;;;5129054;27;20375;-75
2023/07/05 09:08:04;;;;;;;6.63;2.47;;;;;;;;;;5129746;27;20360;-75
2023/07/05 09:10:39;;;;;;;9.07;2.63;;;;;;;;;;5123794;28;20813;-75
2023/07/05 09:13:43;;;;;;;6.88;2.42;;;12.70;99.90;;;;;;5101148;28;20446;-75
2023/07/05 09:18:21;;;;;;;8.93;1.80;;;12.90;99.90;;;;;;5123395;27;20367;-77
2023/07/05 09:20:50;;;;;;;6.67;1.30;;;;;;;;;;5124563;27;20430;-75
2023/07/05 09:23:26;;;;;;;6.15;1.30;;;;;;;;;;5100654;28;20403;-75
2023/07/05 09:25:56;;;;;;;7.07;1.17;;;;;;;;;;5085188;28;20446;-76
2023/07/05 09:28:31;;;;;;;6.75;1.25;;;13.50;99.90;;;;;;5082739;28;20488;-76
2023/07/05 09:31:01;;;;;;;6.07;1.13;;;;;;;;;;5099538;28;20436;-76
2023/07/05 09:34:31;;;;;;;5.75;1.10;;;;;;;;;;5107219;27;22250;-77
2023/07/05 09:36:59;;;;;;;3.80;0.95;;;13.70;99.90;;;;;;5100100;28;20413;-78
2023/07/05 09:39:45;;;;;;;4.22;1.08;;;13.40;99.90;;;;;;5103002;28;20418;-77
2023/07/05 09:42:26;;;;;;;3.22;0.93;;;;;;;;;;5104587;28;20466;-77
2023/07/05 09:44:52;;;;;;;6.18;1.08;;;13.80;99.90;;;;;;5103456;28;20452;-77
2023/07/05 09:47:21;;;;;;;5.50;1.10;;;13.70;99.90;;;;;;5106129;28;20921;-77
2023/07/05 09:49:47;;;;;;;8.90;1.30;;;;;;;;;;5102161;28;20741;-77
2023/07/05 09:52:16;;;;;;;3.43;1.10;;;13.80;99.90;;;;;;5089107;28;20429;-77
2023/07/05 09:54:42;;;;;;;4.73;1.00;;;;;;;;;;5087873;28;20424;-77
2023/07/05 09:57:09;;;;;;;3.55;1.10;;;;;;;;;;5085461;28;20429;-76
2023/07/05 09:59:36;;;;;;;4.20;0.90;;;;;;;;;;5090062;28;20475;-77
2023/07/05 10:02:02;;;;;;;3.65;0.88;;;;;;;;;;5085116;27;20516;-78
2023/07/05 10:04:29;;;;;;;5.70;1.00;;;;;;;;;;5107242;28;20432;-77
2023/07/05 10:06:55;;;;;;;3.20;0.80;;;14.80;99.90;;;;;;5106985;28;20524;-78
2023/07/05 10:09:23;;;;;;;4.63;1.08;;;14.90;99.90;;;;;;5080028;28;20508;-77
2023/07/05 10:11:54;;;;;;;4.47;0.93;;;14.80;99.90;;;;;;5106155;28;20486;-77
2023/07/05 10:14:22;;;;;;;5.45;0.85;;;;;;;;;;5102053;28;20415;-78
2023/07/05 10:16:48;;;;;;;3.50;0.90;;;;;;;;;;5096034;28;20423;-77
2023/07/05 10:19:20;;;;;;;3.35;0.90;;;;;;;;;;5094595;28;20453;-77
2023/07/05 10:22:04;;;;;;;4.32;0.80;;;15.70;99.90;;;;;;5096214;28;20411;-78
2023/07/05 10:24:35;;;;;;;3.25;0.85;;;15.80;99.90;;;;;;5073800;28;20499;-79
2023/07/05 10:27:19;;;;;;;3.45;0.90;;;16.00;99.90;;;;;;5088626;28;20441;-77
2023/07/05 10:29:47;;;;;;;3.40;1.02;;;;;;;;;;5094597;28;20417;-78
2023/07/05 10:32:20;;;;;;;4.88;1.00;;;;;;;;;;5089722;28;20561;-78
2023/07/05 10:34:50;;;;;;;5.50;1.30;;;16.30;99.90;;;;;;5076189;28;20424;-78
2023/07/05 10:37:32;;;;;;;5.22;1.10;;;;;;;;;;5066692;28;20510;-78
2023/07/05 10:39:59;;;;;;;5.47;1.20;;;16.70;99.90;;;;;;5088705;28;20413;-75
2023/07/05 10:42:25;;;;;;;4.10;1.00;;;;;;;;;;5105854;28;20754;-76
2023/07/05 10:44:52;;;;;;;3.58;1.00;;;;;;;;;;5060925;28;21949;-77
2023/07/05 10:47:19;;;;;;;3.97;0.97;;;16.40;99.90;;;;;;5083437;28;20520;-77
2023/07/05 10:49:47;;;;;;;3.70;1.15;;;16.30;99.90;;;;;;5047881;28;20423;-76
2023/07/05 10:52:16;;;;;;;3.63;1.10;;;16.50;99.90;;;;;;5065658;28;21904;-77
2023/07/05 10:55:03;;;;;;;11.50;1.40;;;16.50;99.90;;;;;;5072297;28;20414;-77
2023/07/05 10:57:42;;;;;;;5.63;1.17;;;16.90;99.90;;;;;;5055579;28;20426;-77
2023/07/05 11:00:38;;;;;;;10.65;1.30;;;17.20;99.90;;;;;;5057751;28;20423;-77
2023/07/05 11:03:11;;;;;;;5.45;1.30;;;17.30;99.90;;;;;;5086267;28;20441;-77
2023/07/05 11:05:49;;;;;;;3.60;1.30;;;;;;;;;;5075145;28;20426;-77
2023/07/05 11:08:26;;;;;;;5.82;1.25;;;17.40;99.90;;;;;;5077149;28;20434;-77
2023/07/05 11:10:55;;;;;;;3.83;1.20;;;17.10;99.90;;;;;;5068756;28;20466;-78
2023/07/05 11:13:21;;;;;;;5.75;1.50;;;;;;;;;;5071997;28;20425;-77
2023/07/05 11:15:48;;;;;;;5.53;1.30;;;;;;;;;;5080603;28;20739;-77
2023/07/05 11:18:20;;;;;;;6.93;1.33;;;17.60;99.90;;;;;;5076009;28;20416;-77
2023/07/05 11:20:47;;;;;;;4.38;1.20;;;;;;;;;;5074802;28;20420;-77
2023/07/05 11:23:42;;;;;;;5.35;1.40;;;18.00;99.90;;;;;;5072333;28;20438;-77
2023/07/05 11:26:08;;;;;;;2.93;1.30;;;;;;;;;;5059076;28;20409;-77
2023/07/05 11:28:41;;;;;;;5.90;1.50;;;18.30;99.90;;;;;;5057697;28;20915;-78
2023/07/05 11:31:08;;;;;;;5.88;1.45;;;18.60;99.90;;;;;;5062791;28;20924;-77
2023/07/05 11:33:35;;;;;;;4.78;1.30;;;;;;;;;;5070841;28;20833;-76
2023/07/05 11:36:28;;;;;;;9.87;2.23;;;18.70;99.90;;;;;;5073739;28;20472;-76
2023/07/05 11:38:57;;;;;;;6.07;1.70;;;18.90;99.90;;;;;;5077689;28;20500;-76
2023/07/05 11:41:25;;;;;;;7.40;2.20;;;18.70;99.90;;;;;;5073207;28;20424;-76
2023/07/05 11:43:56;;;;;;;10.82;2.35;;;18.70;99.90;;;;;;5071954;28;20420;-76
2023/07/05 11:46:45;;;;;;;8.75;2.65;;;18.80;99.90;;;;;;5058584;28;20439;-76
2023/07/05 11:49:17;;;;;;;9.43;2.47;;;18.40;99.90;;;;;;5074443;28;20419;-75
2023/07/05 11:51:44;;;;;;;16.75;3.00;;;;;;;;;;5063473;28;20458;-75
2023/07/05 11:54:10;;;;;;;15.02;3.92;;;16.80;99.90;;;;;;5058147;28;20420;-75
2023/07/05 11:56:39;;;;;;;11.47;3.10;;;15.90;99.90;;;;;;5070510;28;20503;-77
2023/07/05 11:59:08;;;;;;;10.30;2.60;;;15.00;99.90;;;;;;5058641;28;20484;-77
2023/07/05 12:01:39;;;;;;;12.88;3.00;;;14.70;99.90;;;;;;5079936;28;20412;-77
2023/07/05 12:04:06;;;;;;;12.68;3.10;;;;;;;;;;5070017;28;20520;-77
2023/07/05 12:06:43;;;;;;;12.38;3.38;;;14.30;99.90;;;;;;5084620;28;20507;-77
2023/07/05 12:09:25;;;;;;;14.83;3.00;;;13.90;99.90;;;;;;5083159;28;20476;-77
2023/07/05 12:11:55;;;;;;;12.63;3.00;;;13.70;99.90;;;;;;5081999;28;20422;-77
2023/07/05 12:14:22;;;;;;;11.63;3.70;;;;;;;;;;5072952;28;20424;-76
2023/07/05 12:16:48;;;;;;;9.45;3.42;;;13.40;99.90;;;;;;5084757;28;20546;-76
2023/07/05 12:19:44;;;;;;;10.35;3.63;;;13.40;99.90;;;;;;5073624;28;20515;-76
2023/07/05 12:22:25;;;;;;;10.55;3.90;;;;;;;;;;5059440;28;20514;-75
2023/07/05 12:24:53;;;;;;;11.07;3.70;;;;;;;;;;5074756;28;20490;-74
2023/07/05 12:27:24;;;;;;;11.95;3.40;;;;;;;;;;5061146;28;20431;-75
2023/07/05 12:29:51;;;;;;;8.70;2.90;;;;;;;;;;5075120;28;20752;-76
2023/07/05 12:32:24;;;;;;;9.00;3.10;;;12.50;99.90;;;;;;5057925;28;20435;-76
2023/07/05 12:35:14;;;;;;;9.95;3.30;;;12.60;99.90;;;;;;5076224;28;20982;-76
2023/07/05 12:37:40;;;;;;;10.90;2.92;;;;;;;;;;5055641;28;20543;-76
2023/07/05 12:40:16;;;;;;;13.40;3.13;;;;;;;;;;5078351;28;20448;-75
2023/07/05 12:42:48;;;;;;;10.30;3.38;;;12.40;99.90;;;;;;5065625;28;21157;-76
2023/07/05 12:45:16;;;;;;;12.57;3.00;;;;;;;;;;5083922;28;20413;-76
2023/07/05 12:47:41;;;;;;;10.27;3.20;;;12.30;99.90;;;;;;5081446;28;20994;-76
2023/07/05 12:50:07;;;;;;;10.77;3.50;;;;;;;;;;5070381;28;20424;-75
2023/07/05 12:52:34;;;;;;;12.75;3.25;;;;;;;;;;5077877;28;20410;-76
2023/07/05 12:54:59;;;;;;;12.90;3.38;;;13.00;99.90;;;;;;5062836;28;20441;-75
2023/07/05 12:57:30;;;;;;;9.70;3.20;;;13.00;99.90;;;;;;5062410;28;20494;-76
2023/07/05 12:59:56;;;;;;;12.13;3.03;;;12.90;99.90;;;;;;5070371;28;20604;-76
2023/07/05 13:02:29;;;;;;;13.35;3.40;;;12.90;99.90;;;;;;5084148;28;20909;-75
2023/07/05 13:04:55;;;;;;;10.82;3.13;;;;;;;;;;5066941;28;20421;-75
2023/07/05 13:07:23;;;;;;;10.60;3.07;;;12.80;99.90;;;;;;5074930;28;20425;-76
2023/07/05 13:09:52;;;;;;;9.57;2.70;;;12.80;99.90;;;;;;5062462;28;20479;-77
2023/07/05 13:12:19;;;;;;;11.32;2.40;;;;;;;;;;5071665;28;20421;-76
2023/07/05 13:14:58;;;;;;;11.52;2.75;;;12.60;99.90;;;;;;5085224;28;20428;-76
2023/07/05 13:17:28;;;;;;;8.63;2.58;;;12.40;99.90;;;;;;5076022;28;20417;-76
2023/07/05 13:20:16;;;;;;;14.38;3.20;;;12.70;99.90;;;;;;5071758;28;20443;-76
2023/07/05 13:22:51;;;;;;;8.55;2.55;;;12.80;99.90;;;;;;5072648;28;20469;-76
2023/07/05 13:25:27;;;;;;;11.23;2.75;;;;;;;;;;5074884;28;20422;-75
2023/07/05 13:27:54;;;;;;;10.13;2.67;;;;;;;;;;5073987;28;20508;-74
2023/07/05 13:30:21;;;;;;;10.35;2.45;;;;;;;;;;5060668;28;20524;-77
2023/07/05 13:32:51;;;;;;;11.93;2.50;;;;;;;;;;5063574;28;20443;-75
2023/07/05 13:35:17;;;;;;;12.93;2.80;;;;;;;;;;5094291;28;20918;-75
2023/07/05 13:37:44;;;;;;;13.03;2.90;;;;;;;;;;5066602;28;20410;-75
2023/07/05 13:40:25;;;;;;;16.60;3.70;;;12.90;99.90;;;;;;5065866;28;20762;-77
2023/07/05 13:42:52;;;;;;;11.37;3.53;;;;;;;;;;5097084;28;20999;-76
2023/07/05 13:45:24;;;;;;;15.25;3.25;;;12.60;99.90;;;;;;5080573;28;20432;-76
2023/07/05 13:47:51;;;;;;;12.82;3.33;;;12.60;99.90;;;;;;5082170;28;20503;-76
2023/07/05 13:50:17;;;;;;;11.63;3.08;;;;;;;;;;5045019;28;20425;-77
2023/07/05 13:52:45;;;;;;;15.20;3.22;;;12.80;99.90;;;;;;5073548;28;20672;-78
2023/07/05 13:55:16;;;;;;;15.18;3.55;;;;;;;;;;5053801;28;20415;-78
2023/07/05 13:57:55;;;;;;;14.93;3.80;;;12.50;99.90;;;;;;5089035;28;20484;-78
2023/07/05 14:00:22;;;;;;;15.82;3.78;;;;;;;;;;5078574;28;20433;-77
2023/07/05 14:02:49;;;;;;;13.45;3.50;;;;;;;;;;5055833;28;20439;-78
2023/07/05 14:05:17;;;;;;;15.68;3.97;;;;;;;;;;5077007;28;20435;-77
2023/07/05 14:07:43;;;;;;;13.43;3.65;;;;;;;;;;5073412;28;20506;-76
2023/07/05 14:10:14;;;;;;;13.32;3.75;;;12.40;99.90;;;;;;5069915;28;20427;-77
2023/07/05 14:12:40;;;;;;;14.38;3.65;;;13.30;99.90;;;;;;5061181;28;21116;-77
2023/07/05 14:15:19;;;;;;;12.60;3.50;;;;;;;;;;5069812;28;20425;-77
2023/07/05 14:17:45;;;;;;;15.45;4.00;;;12.40;99.90;;;;;;5056925;28;20414;-77
2023/07/05 14:20:11;;;;;;;11.30;3.30;;;12.50;99.90;;;;;;5057694;28;20809;-76
2023/07/05 14:22:36;;;;;;;12.70;3.60;;;12.30;99.90;;;;;;5058693;28;20752;-77
2023/07/05 14:25:02;;;;;;;12.07;3.50;;;12.50;99.90;;;;;;5079341;28;20629;-76
2023/07/05 14:27:28;;;;;;;10.67;4.03;;;13.20;99.90;;;;;;5074556;28;20913;-76